Time;durP1;ratioP1;P1;durP2;ratioP2;P2;SDS_P1;SDS_P2;PMS_P1;PMS_P2;Temp;Humidity;BMP_temperature;BMP_pressure;BME280_temperature;BME280_humidity;BME280_pressure;Samples;Min_cycle;Max_cycle;Signal;HPM_P1;HPM_P2
2022/07/26 00:00:12;;;;;;;5.20;2.15;;;25.60;99.90;;;;;;5036712;28;20057;-83
2022/07/26 00:02:40;;;;;;;4.75;1.80;;;25.60;99.90;;;;;;5029290;28;20050;-83
2022/07/26 00:05:14;;;;;;;7.57;2.10;;;25.60;99.90;;;;;;5029713;28;20100;-84
2022/07/26 00:07:41;;;;;;;3.20;1.67;;;25.60;99.90;;;;;;5022345;28;20078;-83
2022/07/26 00:10:08;;;;;;;7.55;2.05;;;25.50;99.90;;;;;;5025351;28;20118;-83
2022/07/26 00:12:36;;;;;;;4.47;1.65;;;25.60;99.90;;;;;;5028148;28;20045;-83
2022/07/26 00:15:04;;;;;;;3.58;1.88;;;25.50;99.90;;;;;;5028631;28;20073;-83
2022/07/26 00:17:31;;;;;;;2.55;1.50;;;25.50;99.90;;;;;;5027367;28;20455;-84
2022/07/26 00:19:58;;;;;;;4.05;1.55;;;25.50;99.90;;;;;;5033322;28;20141;-83
2022/07/26 00:22:34;;;;;;;5.50;2.63;;;25.40;99.90;;;;;;5029441;28;20499;-83
2022/07/26 00:25:03;;;;;;;4.35;2.25;;;25.40;99.90;;;;;;5032222;28;20065;-84
2022/07/26 00:27:30;;;;;;;3.90;2.00;;;25.40;99.90;;;;;;5031861;28;20503;-83
2022/07/26 00:29:57;;;;;;;4.68;2.00;;;25.40;99.90;;;;;;5029761;28;20511;-83
2022/07/26 00:32:23;;;;;;;4.45;1.77;;;25.30;99.90;;;;;;5032558;28;20076;-84
2022/07/26 00:34:51;;;;;;;4.07;1.95;;;25.40;99.90;;;;;;5030100;28;20474;-83
2022/07/26 00:37:19;;;;;;;3.63;1.65;;;25.40;99.90;;;;;;5029090;28;20045;-84
2022/07/26 00:39:47;;;;;;;4.13;2.10;;;25.40;99.90;;;;;;5029280;28;20046;-84
2022/07/26 00:42:14;;;;;;;3.42;1.80;;;25.50;99.90;;;;;;5032894;28;20073;-83
2022/07/26 00:44:43;;;;;;;3.30;1.60;;;25.50;99.90;;;;;;5025466;28;20562;-83
2022/07/26 00:47:11;;;;;;;3.78;1.90;;;25.50;99.90;;;;;;5032041;28;20061;-84
2022/07/26 00:49:38;;;;;;;4.47;1.80;;;25.50;99.90;;;;;;5031212;28;20088;-84
2022/07/26 00:52:06;;;;;;;3.38;1.95;;;25.60;99.90;;;;;;5032480;28;20089;-84
2022/07/26 00:54:34;;;;;;;5.30;1.35;;;25.50;99.90;;;;;;5029224;28;20092;-84
2022/07/26 00:57:01;;;;;;;2.95;1.80;;;25.50;99.90;;;;;;5034008;28;20046;-83
2022/07/26 00:59:28;;;;;;;2.05;1.25;;;25.40;99.90;;;;;;5031400;28;20076;-83
2022/07/26 01:01:55;;;;;;;4.57;1.60;;;25.40;99.90;;;;;;5045050;28;20046;-84
2022/07/26 01:04:22;;;;;;;3.83;1.40;;;25.40;99.90;;;;;;5044870;28;20050;-83
2022/07/26 01:06:49;;;;;;;1.92;1.30;;;25.40;99.90;;;;;;5045866;28;20431;-82
2022/07/26 01:09:17;;;;;;;1.52;1.20;;;25.40;99.90;;;;;;5026974;28;20088;-83
2022/07/26 01:11:44;;;;;;;4.88;1.63;;;25.30;99.90;;;;;;5031568;28;20057;-84
2022/07/26 01:14:11;;;;;;;8.65;1.35;;;25.30;99.90;;;;;;5031985;28;20128;-83
2022/07/26 01:16:38;;;;;;;1.20;1.10;;;25.30;99.90;;;;;;5044052;28;20058;-84
2022/07/26 01:19:05;;;;;;;6.25;1.25;;;25.30;99.90;;;;;;5041283;28;20052;-82
2022/07/26 01:21:32;;;;;;;5.22;1.20;;;25.30;99.90;;;;;;5043452;28;20045;-83
2022/07/26 01:23:59;;;;;;;2.75;1.00;;;25.30;99.90;;;;;;5040698;28;20074;-83
2022/07/26 01:26:26;;;;;;;1.70;0.82;;;25.30;99.90;;;;;;5041352;28;20049;-83
2022/07/26 01:28:53;;;;;;;5.32;1.05;;;25.30;99.90;;;;;;5040189;28;20100;-83
2022/07/26 01:31:20;;;;;;;4.32;1.00;;;25.30;99.90;;;;;;5028472;28;20061;-83
2022/07/26 01:33:48;;;;;;;4.40;1.00;;;25.20;99.90;;;;;;5029638;28;20045;-84
2022/07/26 01:36:15;;;;;;;2.63;1.60;;;25.20;99.90;;;;;;5023103;28;20113;-83
2022/07/26 01:38:42;;;;;;;3.92;1.60;;;25.20;99.90;;;;;;5023526;28;20081;-83
2022/07/26 01:41:10;;;;;;;4.65;1.23;;;25.30;99.90;;;;;;5031539;28;20128;-83
2022/07/26 01:43:37;;;;;;;1.45;0.90;;;25.20;99.90;;;;;;5036395;28;20049;-83
2022/07/26 01:46:08;;;;;;;3.40;0.90;;;25.20;99.90;;;;;;5026421;28;20049;-83
2022/07/26 01:48:35;;;;;;;2.08;0.90;;;25.20;99.90;;;;;;5023165;28;20046;-84
2022/07/26 01:51:02;;;;;;;2.17;0.98;;;25.10;99.90;;;;;;5026511;28;20045;-83
2022/07/26 01:53:29;;;;;;;2.80;0.80;;;25.00;99.90;;;;;;5029340;28;20058;-84
2022/07/26 01:55:57;;;;;;;3.08;0.77;;;25.00;99.90;;;;;;5029675;28;20080;-84
2022/07/26 01:58:23;;;;;;;2.45;0.80;;;25.00;99.90;;;;;;5032376;28;20067;-83
2022/07/26 02:00:50;;;;;;;3.75;0.70;;;24.90;99.90;;;;;;5021059;28;20082;-84
2022/07/26 02:03:17;;;;;;;0.80;0.52;;;24.70;99.90;;;;;;5029328;28;20109;-83
2022/07/26 02:05:44;;;;;;;5.63;0.90;;;24.70;99.90;;;;;;5024861;28;20053;-83
2022/07/26 02:08:11;;;;;;;3.75;0.80;;;24.70;99.90;;;;;;5038220;28;20141;-83
2022/07/26 02:13:24;;;;;;;2.40;0.57;;;24.80;99.90;;;;;;5044708;28;20038;-83
2022/07/26 02:15:51;;;;;;;8.75;1.40;;;24.70;99.90;;;;;;5047491;28;20365;-83
2022/07/26 02:18:17;;;;;;;0.90;0.40;;;24.80;99.90;;;;;;5044968;28;20080;-82
2022/07/26 02:20:44;;;;;;;2.83;0.88;;;24.80;99.90;;;;;;5048628;28;20049;-82
2022/07/26 02:23:11;;;;;;;1.58;0.70;;;24.80;99.90;;;;;;5044791;28;20531;-83
2022/07/26 02:25:38;;;;;;;3.92;0.70;;;24.80;99.90;;;;;;5044789;28;20546;-83
2022/07/26 02:28:05;;;;;;;1.35;0.70;;;24.80;99.90;;;;;;5045141;28;20095;-82
2022/07/26 02:30:31;;;;;;;1.48;0.40;;;24.70;99.90;;;;;;5039804;28;20031;-83
2022/07/26 02:32:59;;;;;;;2.85;0.65;;;24.70;99.90;;;;;;5048557;28;20049;-83
2022/07/26 02:35:26;;;;;;;1.05;0.63;;;24.80;99.90;;;;;;5043947;28;20041;-83
2022/07/26 02:37:52;;;;;;;2.70;1.25;;;24.80;99.90;;;;;;5045469;28;20046;-82
2022/07/26 02:40:19;;;;;;;1.60;0.60;;;24.70;99.90;;;;;;5044871;28;20116;-83
2022/07/26 02:42:46;;;;;;;0.82;0.52;;;24.80;99.90;;;;;;5044858;28;20113;-82
2022/07/26 02:45:13;;;;;;;0.88;0.50;;;24.70;99.90;;;;;;5042767;28;20044;-83
2022/07/26 02:47:47;;;;;;;0.98;0.75;;;24.70;99.90;;;;;;5032562;28;20049;-84
2022/07/26 02:50:18;;;;;;;3.05;0.80;;;24.70;99.90;;;;;;5030942;28;20064;-83
2022/07/26 02:52:46;;;;;;;1.90;0.70;;;24.70;99.90;;;;;;5032684;28;20045;-84
2022/07/26 02:55:15;;;;;;;4.88;0.60;;;24.70;99.90;;;;;;5033025;28;20128;-83
2022/07/26 02:57:42;;;;;;;1.45;0.52;;;24.70;99.90;;;;;;5028614;28;20082;-84
2022/07/26 03:00:14;;;;;;;0.95;0.80;;;24.60;99.90;;;;;;5029648;28;20050;-83
2022/07/26 03:02:41;;;;;;;1.63;0.57;;;24.60;99.90;;;;;;5031007;28;20045;-84
2022/07/26 03:05:08;;;;;;;1.25;0.77;;;24.60;99.90;;;;;;5028676;28;20107;-84
2022/07/26 03:07:35;;;;;;;2.45;0.70;;;24.60;99.90;;;;;;5031104;28;20092;-84
2022/07/26 03:10:03;;;;;;;1.77;0.70;;;24.60;99.90;;;;;;5029956;28;20086;-84
2022/07/26 03:12:30;;;;;;;0.90;0.70;;;24.60;99.90;;;;;;5031103;28;20088;-83
2022/07/26 03:14:56;;;;;;;2.05;0.75;;;24.50;99.90;;;;;;5031902;28;20085;-84
2022/07/26 03:17:23;;;;;;;4.45;0.60;;;24.40;99.90;;;;;;5029287;28;20081;-84
2022/07/26 03:19:50;;;;;;;2.28;0.60;;;24.40;99.90;;;;;;5024137;28;20045;-83
2022/07/26 03:22:17;;;;;;;3.13;0.73;;;24.40;99.90;;;;;;5031418;28;20041;-84
2022/07/26 03:24:44;;;;;;;3.40;0.98;;;24.20;99.90;;;;;;5030072;28;20499;-85
2022/07/26 03:27:11;;;;;;;1.48;0.50;;;24.30;99.90;;;;;;5031540;28;20111;-84
2022/07/26 03:29:37;;;;;;;1.52;0.63;;;24.30;99.90;;;;;;5027885;28;20054;-83
2022/07/26 03:32:04;;;;;;;2.78;0.70;;;24.30;99.90;;;;;;5035312;28;20057;-83
2022/07/26 03:34:31;;;;;;;4.88;0.70;;;24.30;99.90;;;;;;5028376;28;20061;-84
2022/07/26 03:36:58;;;;;;;2.17;0.70;;;24.40;99.90;;;;;;5031184;28;20049;-83
2022/07/26 03:39:25;;;;;;;5.40;0.63;;;24.40;99.90;;;;;;5029494;28;20319;-84
2022/07/26 03:41:52;;;;;;;0.60;0.60;;;24.30;99.90;;;;;;5029901;28;20132;-84
2022/07/26 03:44:18;;;;;;;1.00;0.70;;;24.30;99.90;;;;;;5044010;28;20072;-83
2022/07/26 03:46:45;;;;;;;4.13;0.77;;;24.30;99.90;;;;;;5038374;28;20058;-83
2022/07/26 03:49:12;;;;;;;2.33;0.73;;;24.20;99.90;;;;;;5036169;28;20121;-83
2022/07/26 03:51:43;;;;;;;2.08;0.80;;;24.20;99.90;;;;;;5040589;28;20049;-82
2022/07/26 03:54:10;;;;;;;0.90;0.75;;;24.20;99.90;;;;;;5041377;28;20188;-84
2022/07/26 03:56:38;;;;;;;1.83;0.63;;;24.20;99.90;;;;;;5044436;28;20056;-84
2022/07/26 03:59:07;;;;;;;3.25;0.93;;;24.20;99.90;;;;;;5041161;28;20045;-82
2022/07/26 04:01:40;;;;;;;2.22;0.90;;;24.20;99.90;;;;;;5045747;28;20193;-84
2022/07/26 04:04:08;;;;;;;2.45;0.70;;;24.10;99.90;;;;;;5047439;28;20080;-84
2022/07/26 04:06:38;;;;;;;2.33;0.80;;;24.00;99.90;;;;;;5044994;28;20030;-84
2022/07/26 04:09:06;;;;;;;0.68;0.65;;;24.00;99.90;;;;;;5029439;28;20050;-82
2022/07/26 04:11:34;;;;;;;1.60;0.90;;;23.90;99.90;;;;;;5029267;28;20049;-83
2022/07/26 04:14:01;;;;;;;1.55;0.82;;;23.90;99.90;;;;;;5027203;28;20103;-83
2022/07/26 04:16:28;;;;;;;4.03;0.98;;;23.80;99.90;;;;;;5023875;28;20484;-84
2022/07/26 04:18:55;;;;;;;2.67;0.93;;;23.80;99.90;;;;;;5026746;28;20128;-83
2022/07/26 04:21:22;;;;;;;1.88;0.98;;;23.80;99.90;;;;;;5025291;28;20526;-82
2022/07/26 04:23:49;;;;;;;4.45;0.80;;;23.90;99.90;;;;;;5026881;28;20049;-83
2022/07/26 04:26:19;;;;;;;1.05;0.88;;;23.90;99.90;;;;;;5027610;28;20049;-83
2022/07/26 04:28:46;;;;;;;2.30;0.70;;;23.90;99.90;;;;;;5033993;28;20089;-83
2022/07/26 04:31:13;;;;;;;2.13;0.75;;;23.90;99.90;;;;;;5026941;28;20073;-83
2022/07/26 04:33:41;;;;;;;1.95;0.60;;;23.90;99.90;;;;;;5024569;28;20416;-83
2022/07/26 04:36:08;;;;;;;1.08;0.70;;;23.90;99.90;;;;;;5025509;28;20141;-83
2022/07/26 04:38:34;;;;;;;4.88;1.33;;;23.90;99.90;;;;;;5025666;28;20073;-83
2022/07/26 04:41:01;;;;;;;2.10;1.23;;;24.00;99.90;;;;;;5027422;28;20088;-81
2022/07/26 04:43:28;;;;;;;2.90;1.30;;;24.00;99.90;;;;;;5024421;28;20042;-83
2022/07/26 04:45:56;;;;;;;1.58;0.80;;;24.00;99.90;;;;;;5028934;28;20475;-83
2022/07/26 04:48:23;;;;;;;2.85;1.02;;;24.10;99.90;;;;;;5024720;28;20073;-83
2022/07/26 04:50:50;;;;;;;2.42;1.05;;;24.20;99.90;;;;;;5028134;28;20503;-83
2022/07/26 04:53:17;;;;;;;1.80;1.10;;;24.10;99.90;;;;;;5029179;28;20081;-83
2022/07/26 04:55:44;;;;;;;3.00;1.00;;;24.10;99.90;;;;;;5028518;28;20050;-84
2022/07/26 04:58:11;;;;;;;1.70;1.20;;;24.10;99.90;;;;;;5030293;28;20495;-83
2022/07/26 05:00:37;;;;;;;3.65;1.23;;;24.20;99.90;;;;;;5026618;28;20095;-83
2022/07/26 05:03:24;;;;;;;2.15;0.70;;;24.20;99.90;;;;;;5027456;28;20061;-83
2022/07/26 05:05:51;;;;;;;3.00;1.00;;;24.20;99.90;;;;;;5032186;28;20495;-83
2022/07/26 05:08:19;;;;;;;2.17;0.80;;;24.20;99.90;;;;;;5030822;28;20118;-84
2022/07/26 05:10:45;;;;;;;1.20;0.88;;;24.20;99.90;;;;;;5033557;28;20072;-84
2022/07/26 05:13:20;;;;;;;1.63;0.82;;;24.10;99.90;;;;;;5034797;28;20145;-84
2022/07/26 05:15:56;;;;;;;3.80;1.00;;;24.10;99.90;;;;;;5033838;28;20049;-84
2022/07/26 05:18:23;;;;;;;1.50;0.68;;;24.10;99.90;;;;;;5031476;28;20200;-84
2022/07/26 05:20:50;;;;;;;2.70;1.70;;;24.20;99.90;;;;;;5030478;28;20101;-83
2022/07/26 05:23:19;;;;;;;2.90;1.20;;;24.20;99.90;;;;;;5035782;28;20601;-83
2022/07/26 05:25:46;;;;;;;4.32;0.93;;;24.20;99.90;;;;;;5037550;28;20076;-83
2022/07/26 05:28:13;;;;;;;4.25;1.15;;;24.20;99.90;;;;;;5033337;28;20080;-83
2022/07/26 05:30:40;;;;;;;2.45;1.10;;;23.90;99.90;;;;;;5032780;28;20137;-83
2022/07/26 05:33:07;;;;;;;1.67;1.20;;;24.00;99.90;;;;;;5032623;28;20045;-83
2022/07/26 05:35:34;;;;;;;3.08;1.08;;;24.20;99.90;;;;;;5028276;28;20092;-83
2022/07/26 05:38:01;;;;;;;1.63;1.17;;;24.30;99.90;;;;;;5040697;28;20056;-83
2022/07/26 05:40:27;;;;;;;4.63;1.30;;;24.20;99.90;;;;;;5039606;28;20151;-83
2022/07/26 05:42:54;;;;;;;4.35;1.50;;;24.10;99.90;;;;;;5041698;28;20060;-83
2022/07/26 05:45:21;;;;;;;5.10;1.65;;;24.10;99.90;;;;;;5040709;28;20624;-83
2022/07/26 05:47:49;;;;;;;4.93;1.42;;;24.10;99.90;;;;;;5039224;28;20189;-83
2022/07/26 05:50:16;;;;;;;3.72;1.45;;;24.10;99.90;;;;;;5035517;28;20104;-85
2022/07/26 05:52:43;;;;;;;4.57;1.75;;;23.90;99.90;;;;;;5033883;28;20054;-84
2022/07/26 05:55:10;;;;;;;3.55;1.42;;;23.90;99.90;;;;;;5032163;28;20092;-82
2022/07/26 05:57:40;;;;;;;3.95;1.77;;;23.80;99.90;;;;;;5029377;28;20046;-83
2022/07/26 06:00:08;;;;;;;;;;;23.70;99.90;;;;;;5029021;28;20099;-84
2022/07/26 06:02:35;;;;;;;6.25;1.40;;;23.70;99.90;;;;;;5024894;28;19948;-83
2022/07/26 06:05:02;;;;;;;2.38;1.20;;;23.70;99.90;;;;;;5033081;28;20049;-84
2022/07/26 06:07:28;;;;;;;5.95;1.23;;;23.70;99.90;;;;;;5030339;28;20072;-83
2022/07/26 06:09:55;;;;;;;2.65;1.30;;;23.80;99.90;;;;;;5027772;28;20062;-84
2022/07/26 06:12:22;;;;;;;5.38;1.40;;;23.80;99.90;;;;;;5031000;28;20069;-83
2022/07/26 06:14:49;;;;;;;4.50;1.40;;;23.80;99.90;;;;;;5033670;28;20076;-84
2022/07/26 06:17:16;;;;;;;3.72;1.33;;;23.90;99.90;;;;;;5036876;28;20057;-84
2022/07/26 06:19:42;;;;;;;1.58;1.20;;;24.00;99.90;;;;;;5040471;28;20051;-83
2022/07/26 06:22:13;;;;;;;3.75;1.30;;;24.00;99.90;;;;;;5035321;28;20400;-83
2022/07/26 06:24:40;;;;;;;2.47;1.38;;;23.70;99.90;;;;;;5029048;28;20053;-83
2022/07/26 06:27:06;;;;;;;2.85;1.38;;;23.60;99.90;;;;;;5033162;28;20121;-83
2022/07/26 06:29:34;;;;;;;2.55;1.38;;;23.60;99.90;;;;;;5022211;28;20137;-84
2022/07/26 06:32:00;;;;;;;4.05;1.35;;;23.50;99.90;;;;;;5032258;28;20072;-84
2022/07/26 06:34:27;;;;;;;3.95;1.13;;;23.30;99.90;;;;;;5032093;28;20054;-84
2022/07/26 06:36:54;;;;;;;6.10;1.27;;;23.20;99.90;;;;;;5030461;28;20132;-84
2022/07/26 06:39:21;;;;;;;2.30;1.30;;;23.20;99.90;;;;;;5038983;28;20153;-83
2022/07/26 06:41:47;;;;;;;2.70;1.30;;;23.20;99.90;;;;;;5023099;28;20042;-84
2022/07/26 06:44:14;;;;;;;1.90;1.20;;;23.10;99.90;;;;;;5030413;28;20049;-84
2022/07/26 06:46:41;;;;;;;2.47;1.10;;;23.00;99.90;;;;;;5028161;28;20097;-83
2022/07/26 06:49:08;;;;;;;1.42;1.20;;;23.00;99.90;;;;;;5028891;28;20060;-84
2022/07/26 06:51:34;;;;;;;2.33;1.40;;;23.00;99.90;;;;;;5030548;28;20054;-84
2022/07/26 06:54:02;;;;;;;1.67;1.30;;;22.90;99.90;;;;;;5027444;28;20053;-83
2022/07/26 06:56:31;;;;;;;3.78;1.27;;;23.00;99.90;;;;;;5032233;28;20073;-83
2022/07/26 06:58:57;;;;;;;2.70;1.17;;;23.00;99.90;;;;;;5028023;28;20090;-83
2022/07/26 07:01:24;;;;;;;3.35;1.50;;;23.00;99.90;;;;;;5029674;28;20128;-84
2022/07/26 07:04:11;;;;;;;5.75;1.40;;;23.00;99.90;;;;;;5026198;28;20061;-84
2022/07/26 07:06:38;;;;;;;3.47;1.65;;;23.20;99.90;;;;;;5029202;28;20511;-84
2022/07/26 07:09:06;;;;;;;2.83;1.10;;;23.20;99.90;;;;;;5029975;28;20053;-83
2022/07/26 07:11:34;;;;;;;6.57;1.75;;;23.30;99.90;;;;;;5028160;28;20053;-84
2022/07/26 07:14:02;;;;;;;3.22;1.60;;;23.20;99.90;;;;;;5022362;28;20058;-83
2022/07/26 07:16:29;;;;;;;6.63;1.45;;;23.20;99.90;;;;;;5026893;28;20050;-84
2022/07/26 07:18:56;;;;;;;3.50;1.27;;;23.30;99.90;;;;;;5028501;28;20099;-83
2022/07/26 07:21:22;;;;;;;2.70;1.38;;;23.40;99.90;;;;;;5030278;28;20448;-84
2022/07/26 07:23:49;;;;;;;4.93;1.33;;;23.50;99.90;;;;;;5028255;28;20533;-83
2022/07/26 07:26:16;;;;;;;4.18;2.00;;;23.50;99.90;;;;;;5024092;28;20491;-83
2022/07/26 07:28:42;;;;;;;11.35;1.95;;;23.60;99.90;;;;;;5027177;28;20061;-83
2022/07/26 07:31:09;;;;;;;4.93;1.50;;;23.50;99.90;;;;;;5024465;28;20058;-83
2022/07/26 07:33:37;;;;;;;4.18;1.20;;;23.50;99.90;;;;;;5026669;28;20077;-83
2022/07/26 07:36:19;;;;;;;4.03;1.17;;;23.40;99.90;;;;;;5021003;28;20081;-83
2022/07/26 07:38:46;;;;;;;5.72;1.20;;;23.40;99.90;;;;;;5024811;28;20487;-83
2022/07/26 07:41:13;;;;;;;1.63;1.02;;;23.30;99.90;;;;;;5024051;28;20046;-83
2022/07/26 07:43:40;;;;;;;4.28;1.17;;;23.30;99.90;;;;;;5023866;28;20508;-83
2022/07/26 07:46:07;;;;;;;6.68;1.35;;;23.20;99.90;;;;;;5027115;28;20113;-83
2022/07/26 07:48:36;;;;;;;2.65;1.15;;;23.20;99.90;;;;;;5019529;28;20157;-83
2022/07/26 07:51:10;;;;;;;2.65;1.15;;;23.20;99.90;;;;;;5025045;28;20059;-82
2022/07/26 07:53:37;;;;;;;6.63;1.10;;;23.20;99.90;;;;;;5026104;28;20046;-82
2022/07/26 07:56:04;;;;;;;3.30;1.20;;;23.20;99.90;;;;;;5022342;28;20041;-83
2022/07/26 07:58:31;;;;;;;2.72;1.63;;;23.20;99.90;;;;;;5019212;28;20050;-83
2022/07/26 08:00:58;;;;;;;3.80;1.00;;;23.20;99.90;;;;;;5025579;28;20136;-83
2022/07/26 08:03:24;;;;;;;2.58;0.98;;;23.30;99.90;;;;;;5023865;28;20084;-82
2022/07/26 08:06:07;;;;;;;2.05;1.27;;;23.40;99.90;;;;;;5026264;28;20049;-84
2022/07/26 08:08:34;;;;;;;4.25;1.10;;;23.40;99.90;;;;;;5022753;28;20136;-83
2022/07/26 08:11:01;;;;;;;3.45;1.05;;;23.50;99.90;;;;;;5023908;28;20435;-83
2022/07/26 08:13:29;;;;;;;6.35;1.08;;;23.50;99.90;;;;;;5020773;28;20132;-81
2022/07/26 08:15:56;;;;;;;3.38;0.93;;;23.50;99.90;;;;;;5024588;28;20049;-82
2022/07/26 08:18:26;;;;;;;2.67;1.05;;;23.50;99.90;;;;;;5018398;28;20038;-83
2022/07/26 08:20:54;;;;;;;4.60;1.08;;;23.50;99.90;;;;;;5023871;28;20050;-83
2022/07/26 08:23:21;;;;;;;1.50;0.90;;;23.50;99.90;;;;;;5021961;28;20080;-82
2022/07/26 08:25:49;;;;;;;4.50;1.27;;;23.60;99.90;;;;;;5023933;28;20084;-82
2022/07/26 08:28:26;;;;;;;4.85;1.17;;;23.70;99.90;;;;;;5013535;28;20047;-82
2022/07/26 08:31:13;;;;;;;3.75;1.02;;;23.70;99.90;;;;;;5016790;28;20050;-83
2022/07/26 08:33:40;;;;;;;5.68;0.90;;;23.80;99.90;;;;;;5025496;28;20122;-83
2022/07/26 08:36:15;;;;;;;2.55;0.98;;;24.00;99.90;;;;;;5032355;28;20125;-82
2022/07/26 08:38:43;;;;;;;;;;;24.10;99.90;;;;;;5026689;28;20042;-82
2022/07/26 08:41:09;;;;;;;4.78;1.00;;;24.20;99.90;;;;;;5032058;28;20000;-82
2022/07/26 08:43:36;;;;;;;2.38;0.98;;;24.30;99.90;;;;;;5031200;28;20129;-83
2022/07/26 08:46:18;;;;;;;1.92;0.90;;;24.40;99.90;;;;;;5024350;28;20069;-83
2022/07/26 08:48:51;;;;;;;3.50;1.20;;;24.60;99.90;;;;;;5028721;28;20060;-84
2022/07/26 08:51:21;;;;;;;3.42;1.08;;;24.80;99.90;;;;;;5030738;28;20045;-84
2022/07/26 08:53:49;;;;;;;3.90;1.00;;;25.00;99.90;;;;;;5027652;28;20046;-84
2022/07/26 08:56:16;;;;;;;5.20;1.15;;;25.00;99.90;;;;;;5030305;28;20555;-84
2022/07/26 08:58:43;;;;;;;3.08;1.00;;;25.10;99.90;;;;;;5029275;28;20112;-83
2022/07/26 09:01:14;;;;;;;4.10;1.10;;;25.10;99.90;;;;;;5029758;28;20499;-83
2022/07/26 09:03:42;;;;;;;6.05;1.42;;;25.20;99.90;;;;;;5031521;28;20045;-84
2022/07/26 09:06:19;;;;;;;2.10;0.95;;;25.10;99.90;;;;;;5019800;28;20049;-84
2022/07/26 09:08:51;;;;;;;3.65;1.23;;;25.10;99.90;;;;;;5029009;28;20045;-84
2022/07/26 09:11:24;;;;;;;6.38;0.93;;;24.90;99.90;;;;;;5031381;28;20119;-83
2022/07/26 09:14:00;;;;;;;7.20;1.20;;;24.80;99.90;;;;;;5029543;28;20113;-83
2022/07/26 09:16:27;;;;;;;5.88;1.13;;;24.80;99.90;;;;;;5028734;28;20100;-83
2022/07/26 09:18:56;;;;;;;3.40;1.20;;;24.90;99.90;;;;;;5033215;28;20103;-84
2022/07/26 09:21:27;;;;;;;4.32;1.17;;;24.90;99.90;;;;;;5029743;28;20496;-83
2022/07/26 09:23:54;;;;;;;3.17;0.98;;;25.00;99.90;;;;;;5029589;28;20050;-83
2022/07/26 09:26:24;;;;;;;7.10;1.23;;;25.20;99.90;;;;;;5032805;28;20049;-83
2022/07/26 09:29:05;;;;;;;5.15;0.98;;;25.30;99.90;;;;;;5031598;28;20068;-84
2022/07/26 09:31:33;;;;;;;4.28;1.02;;;25.40;99.90;;;;;;5043519;28;20056;-83
2022/07/26 09:34:01;;;;;;;3.72;1.10;;;25.40;99.90;;;;;;5040628;28;20069;-82
2022/07/26 09:36:28;;;;;;;2.38;1.20;;;25.40;99.90;;;;;;5034384;28;20057;-84
2022/07/26 09:39:03;;;;;;;5.57;1.10;;;25.40;99.90;;;;;;5030156;28;20058;-83
2022/07/26 09:41:35;;;;;;;5.03;1.40;;;25.50;99.90;;;;;;5029823;28;20053;-84
2022/07/26 09:44:17;;;;;;;5.90;1.20;;;25.30;99.90;;;;;;5027401;28;20054;-83
2022/07/26 09:46:56;;;;;;;9.07;1.17;;;25.20;99.90;;;;;;5027861;28;20224;-84
2022/07/26 09:49:25;;;;;;;3.80;1.10;;;25.10;99.90;;;;;;5036500;28;20045;-84
2022/07/26 09:52:16;;;;;;;5.38;0.93;;;25.10;99.90;;;;;;5040883;28;20109;-83
2022/07/26 09:54:45;;;;;;;3.72;1.00;;;25.20;99.90;;;;;;5040779;28;20054;-83
2022/07/26 09:57:18;;;;;;;2.15;0.85;;;25.20;99.90;;;;;;5033407;28;20041;-83
2022/07/26 09:59:46;;;;;;;4.65;1.10;;;25.30;99.90;;;;;;5029556;28;20486;-83
2022/07/26 10:02:13;;;;;;;2.17;0.90;;;25.40;99.90;;;;;;5032057;28;20045;-83
2022/07/26 10:04:41;;;;;;;3.63;1.00;;;25.50;99.90;;;;;;5028725;28;20120;-83
2022/07/26 10:07:09;;;;;;;2.38;1.20;;;25.60;99.90;;;;;;5029988;28;20054;-83
2022/07/26 10:10:13;;;;;;;3.50;1.15;;;25.70;99.90;;;;;;5027721;28;20108;-84
2022/07/26 10:12:44;;;;;;;3.58;1.10;;;25.90;99.90;;;;;;5028503;28;20054;-83
2022/07/26 10:15:44;;;;;;;1.40;0.80;;;26.10;99.90;;;;;;5027275;28;20088;-82
2022/07/26 10:18:35;;;;;;;8.65;1.08;;;26.20;99.90;;;;;;5025089;28;20104;-82
2022/07/26 10:21:25;;;;;;;2.55;0.82;;;26.40;99.90;;;;;;5023809;28;20045;-83
2022/07/26 10:23:55;;;;;;;4.22;1.38;;;26.60;99.90;;;;;;5025278;28;20097;-82
2022/07/26 10:26:31;;;;;;;2.25;0.95;;;26.60;99.90;;;;;;5029967;28;20081;-82
2022/07/26 10:29:16;;;;;;;2.03;0.90;;;26.70;99.90;;;;;;5005596;28;20535;-82
2022/07/26 10:31:45;;;;;;;2.72;0.70;;;26.60;99.90;;;;;;5026307;28;20046;-82
2022/07/26 10:34:36;;;;;;;5.10;0.85;;;26.40;99.90;;;;;;5028802;28;20056;-82
2022/07/26 10:37:19;;;;;;;4.25;1.10;;;26.20;99.90;;;;;;5023776;28;20077;-83
2022/07/26 10:39:46;;;;;;;5.75;1.02;;;26.20;99.90;;;;;;5025950;28;20050;-82
2022/07/26 10:42:12;;;;;;;5.28;1.00;;;26.20;99.90;;;;;;5029234;28;20526;-83
2022/07/26 10:44:41;;;;;;;3.63;1.27;;;26.20;99.90;;;;;;5028471;28;20096;-83
2022/07/26 10:47:08;;;;;;;5.55;2.78;;;26.20;99.90;;;;;;5028498;28;20054;-83
2022/07/26 10:49:53;;;;;;;10.15;1.52;;;26.20;99.90;;;;;;5028468;28;20057;-83
2022/07/26 10:52:30;;;;;;;5.47;1.08;;;26.40;99.90;;;;;;5026001;28;20137;-83
2022/07/26 10:54:56;;;;;;;4.35;1.17;;;26.40;99.90;;;;;;5024164;28;20128;-83
2022/07/26 10:57:25;;;;;;;2.15;0.85;;;26.60;99.90;;;;;;5027230;28;20104;-83
2022/07/26 10:59:55;;;;;;;2.30;0.88;;;26.60;99.90;;;;;;5026650;28;20054;-83
2022/07/26 11:02:31;;;;;;;4.03;0.80;;;26.60;99.90;;;;;;5024280;28;20053;-83
2022/07/26 11:05:11;;;;;;;4.82;0.95;;;26.80;99.90;;;;;;5035594;28;20046;-83
2022/07/26 11:07:53;;;;;;;4.32;1.08;;;26.90;99.90;;;;;;5025694;28;20490;-83
2022/07/26 11:10:26;;;;;;;2.97;1.02;;;26.70;99.90;;;;;;5024860;28;20050;-83
2022/07/26 11:13:08;;;;;;;4.53;0.95;;;26.40;99.90;;;;;;5025904;28;20117;-83
2022/07/26 11:15:37;;;;;;;2.28;0.75;;;26.20;99.90;;;;;;5028160;28;20081;-84
2022/07/26 11:18:12;;;;;;;4.32;1.20;;;26.20;99.90;;;;;;5029002;28;20112;-83
2022/07/26 11:20:40;;;;;;;4.78;0.82;;;26.30;99.90;;;;;;5024479;28;20046;-83
2022/07/26 11:23:30;;;;;;;2.50;1.00;;;26.40;99.90;;;;;;5027250;28;20041;-83
2022/07/26 11:26:20;;;;;;;3.00;0.90;;;26.40;99.90;;;;;;5025107;28;20466;-84
2022/07/26 11:29:00;;;;;;;5.25;1.73;;;26.40;99.90;;;;;;5024689;28;20085;-83
2022/07/26 11:31:44;;;;;;;4.22;1.00;;;26.40;99.90;;;;;;5023740;28;20144;-84
2022/07/26 11:34:23;;;;;;;8.30;1.38;;;26.40;99.90;;;;;;5023600;28;20125;-83
2022/07/26 11:36:52;;;;;;;5.57;0.93;;;26.50;99.90;;;;;;5024727;28;20056;-84
2022/07/26 11:39:33;;;;;;;2.75;1.00;;;26.60;99.90;;;;;;5027261;28;20051;-84
2022/07/26 11:42:06;;;;;;;4.53;0.88;;;26.60;99.90;;;;;;5024996;28;20084;-84
2022/07/26 11:44:34;;;;;;;4.75;0.82;;;26.70;99.90;;;;;;5024762;28;20134;-84
2022/07/26 11:47:20;;;;;;;4.03;1.27;;;26.90;99.90;;;;;;5021927;28;20109;-84
2022/07/26 11:49:52;;;;;;;2.90;1.00;;;26.70;99.90;;;;;;5020177;28;20231;-84
2022/07/26 11:52:39;;;;;;;5.20;1.17;;;26.80;99.90;;;;;;5024222;28;20050;-83
2022/07/26 11:55:07;;;;;;;3.38;0.80;;;26.80;99.90;;;;;;5025993;28;20432;-84
2022/07/26 11:57:33;;;;;;;5.30;0.88;;;26.90;99.90;;;;;;5024522;28;20081;-84
2022/07/26 12:00:00;;;;;;;4.03;0.95;;;27.10;99.90;;;;;;5025468;28;20069;-84
2022/07/26 12:02:29;;;;;;;2.60;0.88;;;27.20;99.90;;;;;;5025956;28;20045;-83
2022/07/26 12:05:29;;;;;;;5.95;1.15;;;27.30;99.90;;;;;;5024086;28;20129;-84
2022/07/26 12:08:03;;;;;;;4.63;1.33;;;27.30;99.90;;;;;;5012988;28;20045;-84
2022/07/26 12:10:30;;;;;;;4.10;0.80;;;27.20;99.90;;;;;;5026260;28;20073;-84
2022/07/26 12:13:11;;;;;;;2.33;0.80;;;27.10;99.90;;;;;;5024504;28;20562;-84
2022/07/26 12:15:49;;;;;;;3.55;0.77;;;27.10;99.90;;;;;;5028408;28;20041;-84
2022/07/26 12:18:27;;;;;;;4.38;1.02;;;27.10;99.90;;;;;;5024732;28;20053;-84
2022/07/26 12:21:03;;;;;;;1.50;0.73;;;27.00;99.90;;;;;;5029186;28;20133;-84
2022/07/26 12:23:44;;;;;;;2.50;0.85;;;26.60;99.90;;;;;;5025894;28;20515;-84
2022/07/26 12:26:21;;;;;;;1.95;0.80;;;26.60;99.90;;;;;;5028247;28;20046;-84
2022/07/26 12:28:47;;;;;;;1.50;0.90;;;26.70;99.90;;;;;;5023852;28;20109;-84
2022/07/26 12:31:28;;;;;;;1.98;0.90;;;26.70;99.90;;;;;;5030876;28;20045;-83
2022/07/26 12:33:56;;;;;;;1.23;0.70;;;26.50;99.90;;;;;;5026532;28;20062;-84
2022/07/26 12:36:24;;;;;;;0.98;0.70;;;26.50;99.90;;;;;;5030018;28;20140;-84
2022/07/26 12:38:58;;;;;;;2.63;0.90;;;26.60;99.90;;;;;;5031691;28;20084;-84
2022/07/26 12:41:36;;;;;;;3.15;1.00;;;26.60;99.90;;;;;;5024255;28;20416;-84
2022/07/26 12:44:09;;;;;;;2.50;0.80;;;26.70;99.90;;;;;;5027316;28;20061;-84
2022/07/26 12:46:37;;;;;;;3.25;0.70;;;26.70;99.90;;;;;;5024206;28;20046;-83
2022/07/26 12:49:04;;;;;;;3.85;1.10;;;26.70;99.90;;;;;;5030604;28;20057;-83
2022/07/26 12:51:32;;;;;;;2.20;0.70;;;26.80;99.90;;;;;;5029194;28;20054;-83
2022/07/26 12:53:58;;;;;;;2.85;0.75;;;26.80;99.90;;;;;;5032031;28;20049;-84
2022/07/26 12:56:25;;;;;;;3.35;0.90;;;26.90;99.90;;;;;;5030971;28;20058;-84
2022/07/26 12:58:53;;;;;;;3.08;0.98;;;26.90;99.90;;;;;;5028542;28;20085;-84
2022/07/26 13:01:20;;;;;;;3.00;0.88;;;26.90;99.90;;;;;;5029788;28;20100;-84
2022/07/26 13:03:46;;;;;;;1.85;0.90;;;27.00;99.90;;;;;;5028356;28;20050;-84